Time;durP1;ratioP1;P1;durP2;ratioP2;P2;SDS_P1;SDS_P2;PMS_P1;PMS_P2;Temp;Humidity;BMP_temperature;BMP_pressure;BME280_temperature;BME280_humidity;BME280_pressure;Samples;Min_cycle;Max_cycle;Signal;HPM_P1;HPM_P2
2023/07/14 00:01:48;;;;;;;6.07;2.75;;;19.70;71.80;;;18.73;94.17;96309.66;4983553;28;20554;-66
2023/07/14 00:04:28;;;;;;;4.82;2.80;;;19.70;71.90;;;18.72;95.52;96313.38;4998781;28;20042;-67
2023/07/14 00:06:54;;;;;;;4.15;2.60;;;19.70;71.70;;;18.70;94.98;96300.28;4989272;28;20474;-67
2023/07/14 00:09:30;;;;;;;4.03;2.67;;;19.70;71.70;;;18.71;95.69;96298.41;4966734;28;20124;-67
2023/07/14 00:11:57;;;;;;;6.20;2.78;;;19.70;71.90;;;18.69;95.90;96293.31;4998917;28;20041;-67
2023/07/14 00:14:23;;;;;;;4.25;2.50;;;19.70;72.20;;;18.68;95.21;96291.72;4968076;28;20037;-66
2023/07/14 00:16:49;;;;;;;7.82;2.63;;;19.70;72.10;;;18.68;95.80;96281.06;5000872;28;20072;-67
2023/07/14 00:19:16;;;;;;;4.60;2.67;;;19.70;72.30;;;18.69;95.85;96282.66;4951271;28;20036;-67
2023/07/14 00:21:42;;;;;;;6.20;2.80;;;19.70;72.50;;;18.70;96.35;96286.16;4996892;28;20054;-66
2023/07/14 00:24:15;;;;;;;6.07;2.70;;;19.70;72.50;;;18.70;98.26;96294.94;4998382;28;20075;-66
2023/07/14 00:26:43;;;;;;;6.13;2.80;;;19.70;72.50;;;18.67;96.59;96295.41;4997717;28;20118;-67
2023/07/14 00:29:34;;;;;;;5.72;2.83;;;19.70;72.70;;;18.66;98.79;96299.13;4984424;28;20038;-67
2023/07/14 00:32:00;;;;;;;4.60;2.60;;;19.60;72.70;;;18.65;97.05;96295.66;5000800;28;20038;-66
2023/07/14 00:34:26;;;;;;;4.13;2.83;;;19.60;72.60;;;18.62;97.69;96301.47;4969530;28;20033;-66
2023/07/14 00:36:52;;;;;;;4.45;2.85;;;19.60;72.70;;;18.62;97.35;96296.13;4984951;28;20153;-66
2023/07/14 00:39:18;;;;;;;4.25;3.05;;;19.60;72.90;;;18.61;97.04;96304.31;4950927;28;20034;-66
2023/07/14 00:41:43;;;;;;;4.75;2.75;;;19.60;72.90;;;18.57;97.98;96293.34;4983320;28;20045;-66
2023/07/14 00:44:16;;;;;;;5.68;3.08;;;19.60;73.10;;;18.55;98.58;96297.25;4986838;28;20090;-66
2023/07/14 00:46:41;;;;;;;6.57;3.05;;;19.50;73.10;;;18.52;97.76;96287.06;4982846;28;20065;-67
2023/07/14 00:49:14;;;;;;;3.95;3.10;;;19.50;73.40;;;18.47;99.27;96284.28;5001696;28;20037;-67
2023/07/14 00:51:39;;;;;;;5.20;3.38;;;19.40;73.40;;;18.43;98.46;96288.47;4983247;28;20486;-67
2023/07/14 00:54:08;;;;;;;4.90;3.28;;;19.40;73.50;;;18.41;98.70;96285.25;4986626;28;20068;-67
2023/07/14 00:56:45;;;;;;;4.68;2.75;;;19.40;73.70;;;18.38;100.00;96285.72;4962901;28;20044;-66
2023/07/14 00:59:15;;;;;;;6.68;3.20;;;19.30;73.90;;;18.33;100.00;96284.56;5009255;28;20248;-66
2023/07/14 01:02:15;;;;;;;6.53;3.03;;;19.30;74.20;;;18.30;100.00;96274.34;4981996;28;20438;-66
2023/07/14 01:04:51;;;;;;;7.22;3.30;;;19.30;74.30;;;18.26;100.00;96283.03;4992814;28;20052;-66
2023/07/14 01:07:16;;;;;;;4.53;3.20;;;19.20;74.50;;;18.21;100.00;96281.09;4984364;28;20417;-67
2023/07/14 01:09:42;;;;;;;6.55;3.58;;;19.20;74.60;;;18.17;100.00;96281.78;4969354;28;20145;-66
2023/07/14 01:12:09;;;;;;;7.45;3.15;;;19.10;74.80;;;18.13;100.00;96284.09;4983618;28;20034;-67
2023/07/14 01:14:38;;;;;;;5.50;3.08;;;19.10;74.90;;;18.09;100.00;96282.91;4956422;28;20029;-66
2023/07/14 01:17:04;;;;;;;4.25;3.53;;;19.00;75.10;;;18.04;100.00;96277.50;4984797;28;20037;-67
2023/07/14 01:19:59;;;;;;;5.10;3.58;;;19.00;75.30;;;18.02;100.00;96288.38;4959014;28;20044;-67
2023/07/14 01:23:19;;;;;;;4.70;3.33;;;19.00;75.40;;;17.95;100.00;96274.38;4990600;28;20037;-67
2023/07/14 01:26:26;;;;;;;5.53;3.50;;;18.80;75.80;;;17.89;100.00;96279.81;4989308;28;20045;-67
2023/07/14 01:28:52;;;;;;;7.45;3.97;;;18.80;75.90;;;17.85;100.00;96278.63;5005669;28;20041;-66
2023/07/14 01:31:21;;;;;;;4.43;3.40;;;18.80;76.00;;;17.82;100.00;96276.44;4989158;28;20079;-67
2023/07/14 01:33:47;;;;;;;5.00;3.80;;;18.80;76.10;;;17.74;100.00;96283.72;4984645;28;20484;-67
2023/07/14 01:36:13;;;;;;;7.50;3.97;;;18.70;76.30;;;17.67;100.00;96275.03;4971659;28;20041;-67
2023/07/14 01:38:38;;;;;;;4.82;3.60;;;18.70;76.60;;;17.63;100.00;96278.34;4995405;28;20041;-66
2023/07/14 01:41:05;;;;;;;10.15;3.72;;;18.60;76.80;;;17.59;100.00;96267.34;4982948;28;20037;-67
2023/07/14 01:43:32;;;;;;;7.45;3.60;;;18.60;77.00;;;17.55;100.00;96274.16;4985690;28;20049;-66
2023/07/14 01:46:02;;;;;;;5.60;3.75;;;18.60;77.10;;;17.53;100.00;96278.09;4982291;28;20128;-66
2023/07/14 01:48:42;;;;;;;4.57;3.67;;;18.50;77.00;;;17.49;100.00;96266.28;4977451;28;20145;-67
2023/07/14 01:51:09;;;;;;;5.32;3.67;;;18.50;77.10;;;17.46;100.00;96267.56;4982210;28;20575;-67
2023/07/14 01:53:45;;;;;;;6.95;3.75;;;18.50;77.30;;;17.44;100.00;96267.00;4984369;28;20033;-67
2023/07/14 01:56:12;;;;;;;5.35;3.92;;;18.40;77.40;;;17.40;100.00;96268.44;4983187;28;20535;-67
2023/07/14 01:58:56;;;;;;;6.15;3.88;;;18.40;77.50;;;17.34;100.00;96264.88;5000386;28;20029;-66
2023/07/14 02:01:23;;;;;;;3.97;2.83;;;18.30;77.80;;;17.28;100.00;96264.97;4996156;28;20126;-65
2023/07/14 02:03:50;;;;;;;7.55;4.43;;;18.20;78.20;;;17.26;100.00;96269.72;4997481;28;20037;-66
2023/07/14 02:06:16;;;;;;;7.65;4.10;;;18.20;78.30;;;17.22;100.00;96268.53;5000008;28;20056;-67
2023/07/14 02:08:44;;;;;;;6.85;4.38;;;18.10;78.30;;;17.20;100.00;96265.28;4996788;28;20557;-67
2023/07/14 02:11:21;;;;;;;5.95;3.67;;;18.20;78.30;;;17.17;100.00;96263.88;4998368;28;20030;-66
2023/07/14 02:13:47;;;;;;;5.22;3.58;;;18.10;78.30;;;17.13;100.00;96262.72;4996349;28;20676;-67
2023/07/14 02:16:14;;;;;;;5.75;4.03;;;18.10;78.40;;;17.11;100.00;96272.75;4977975;28;20045;-66
2023/07/14 02:18:41;;;;;;;6.50;3.53;;;18.10;78.30;;;17.08;100.00;96270.56;4977370;28;20040;-67
2023/07/14 02:21:07;;;;;;;5.68;4.03;;;18.10;78.20;;;17.03;100.00;96265.94;4982483;28;20041;-66
2023/07/14 02:23:33;;;;;;;4.85;3.63;;;18.10;78.30;;;17.01;100.00;96270.66;4971243;28;20033;-66
2023/07/14 02:26:30;;;;;;;10.15;3.53;;;18.00;78.70;;;16.97;100.00;96269.47;4949058;28;20038;-66
2023/07/14 02:28:57;;;;;;;6.47;4.15;;;18.00;78.90;;;16.93;100.00;96262.16;4988205;28;20091;-67
2023/07/14 02:31:31;;;;;;;5.50;3.90;;;17.90;79.30;;;16.88;100.00;96260.19;4982171;28;20057;-65
2023/07/14 02:33:56;;;;;;;24.73;22.13;;;17.80;79.60;;;16.82;100.00;96261.91;4974981;28;20496;-66
2023/07/14 02:36:29;;;;;;;20.15;17.30;;;17.80;80.00;;;16.81;100.00;96259.47;4967921;28;20773;-66
2023/07/14 02:38:55;;;;;;;11.43;10.18;;;17.80;80.10;;;16.80;100.00;96263.16;4998818;28;20126;-67
2023/07/14 02:41:35;;;;;;;13.40;9.30;;;17.80;80.00;;;16.81;100.00;96260.28;4963481;28;20120;-65
2023/07/14 02:44:03;;;;;;;31.30;27.13;;;17.80;79.90;;;16.75;100.00;96265.69;4999170;28;20573;-66
2023/07/14 02:46:37;;;;;;;12.20;7.70;;;17.80;79.90;;;16.69;100.00;96256.75;4968775;28;20030;-67
2023/07/14 02:49:03;;;;;;;6.00;4.90;;;17.70;78.90;;;16.66;100.00;96265.16;4997775;28;20037;-66
2023/07/14 02:51:29;;;;;;;8.45;4.63;;;17.70;79.50;;;16.65;100.00;96262.69;4999592;28;20029;-67
2023/07/14 02:53:54;;;;;;;5.75;3.95;;;17.70;80.20;;;16.61;100.00;96259.69;4998761;28;20528;-67
2023/07/14 02:56:20;;;;;;;6.75;4.55;;;17.60;80.60;;;16.59;100.00;96263.59;4986909;28;20034;-66
2023/07/14 02:58:49;;;;;;;18.92;13.35;;;17.70;80.70;;;16.59;100.00;96260.94;5014357;28;20034;-66
2023/07/14 03:01:16;;;;;;;15.20;9.10;;;17.70;80.60;;;16.57;100.00;96255.84;4992962;28;20474;-66
2023/07/14 03:03:41;;;;;;;24.05;21.55;;;17.60;80.70;;;16.57;100.00;96269.13;4960834;28;20422;-67
2023/07/14 03:06:11;;;;;;;7.60;6.13;;;17.60;80.80;;;16.53;100.00;96268.78;4982254;28;20145;-67
2023/07/14 03:08:36;;;;;;;20.42;17.63;;;17.60;80.90;;;16.54;100.00;96262.44;4969412;28;20044;-66
2023/07/14 03:11:05;;;;;;;11.73;8.70;;;17.60;81.10;;;16.54;100.00;96254.47;4984456;28;20033;-66
2023/07/14 03:13:31;;;;;;;12.10;10.90;;;17.60;80.90;;;16.52;100.00;96261.84;4985015;28;20037;-67
2023/07/14 03:16:00;;;;;;;18.60;16.60;;;17.60;81.00;;;16.49;100.00;96256.94;4955310;28;20067;-66
2023/07/14 03:18:25;;;;;;;13.73;10.93;;;17.60;81.10;;;16.50;100.00;96257.75;4977228;28;20530;-67
2023/07/14 03:20:59;;;;;;;29.67;26.52;;;17.60;80.90;;;16.51;100.00;96254.88;5004540;28;20037;-66
2023/07/14 03:23:24;;;;;;;10.32;7.65;;;17.60;80.80;;;16.48;100.00;96250.00;4993239;28;20033;-67
2023/07/14 03:25:55;;;;;;;8.18;7.15;;;17.60;80.80;;;16.47;100.00;96253.72;4977473;28;20116;-67
2023/07/14 03:28:21;;;;;;;10.35;7.97;;;17.60;80.80;;;16.44;100.00;96254.16;4970113;28;20060;-67
2023/07/14 03:30:47;;;;;;;13.20;9.23;;;17.50;80.80;;;16.44;100.00;96259.47;4974617;28;20037;-67
2023/07/14 03:33:13;;;;;;;10.80;7.18;;;17.60;80.60;;;16.45;100.00;96254.97;4985255;28;20040;-66
2023/07/14 03:35:38;;;;;;;7.47;5.30;;;17.60;80.60;;;16.44;100.00;96256.81;4983268;28;20040;-66
2023/07/14 03:38:04;;;;;;;5.85;4.32;;;17.60;80.50;;;16.45;100.00;96254.97;4973186;28;20474;-66
2023/07/14 03:40:30;;;;;;;7.07;5.65;;;17.60;80.50;;;16.45;100.00;96258.44;4984091;28;20030;-66
2023/07/14 03:42:56;;;;;;;8.27;6.30;;;17.60;80.60;;;16.45;100.00;96255.78;4950664;28;20199;-67
2023/07/14 03:45:22;;;;;;;12.00;9.48;;;17.50;80.20;;;16.44;100.00;96262.13;5001188;28;20570;-67
2023/07/14 03:47:49;;;;;;;5.68;4.70;;;17.50;80.20;;;16.45;100.00;96260.28;4895292;28;20196;-67
2023/07/14 03:50:15;;;;;;;7.55;3.90;;;17.50;80.20;;;16.43;100.00;96260.50;4856787;28;20348;-73
2023/07/14 03:52:44;;;;;;;21.45;18.15;;;17.50;80.00;;;16.42;100.00;96261.53;4853974;28;20205;-67
2023/07/14 03:55:11;;;;;;;29.85;25.65;;;17.60;79.90;;;16.40;100.00;96260.94;4880099;28;20460;-69
2023/07/14 03:57:37;;;;;;;11.90;8.55;;;17.50;79.90;;;16.41;100.00;96259.91;4861338;28;20904;-68
2023/07/14 04:00:16;;;;;;;9.85;5.60;;;17.60;79.90;;;16.40;100.00;96252.97;4859022;28;20341;-69
2023/07/14 04:02:42;;;;;;;6.80;4.13;;;17.60;79.80;;;16.41;100.00;96254.59;4863302;28;20341;-69
2023/07/14 04:05:09;;;;;;;6.72;3.47;;;17.60;79.90;;;16.41;100.00;96249.28;4890075;28;20342;-69
2023/07/14 04:07:38;;;;;;;4.95;3.40;;;17.60;79.90;;;16.43;100.00;96252.53;4846507;28;20408;-69
2023/07/14 04:10:05;;;;;;;7.00;3.63;;;17.60;79.60;;;16.44;100.00;96254.16;4888111;28;20433;-68
2023/07/14 04:12:32;;;;;;;7.45;4.55;;;17.60;79.60;;;16.47;100.00;96250.25;4866125;28;20717;-68
2023/07/14 04:14:59;;;;;;;5.70;5.10;;;17.70;79.40;;;16.47;100.00;96253.72;4933601;23;20091;-68
2023/07/14 04:17:25;;;;;;;9.43;7.43;;;17.60;79.40;;;16.48;100.00;96244.69;5003968;28;20132;-69
2023/07/14 04:19:51;;;;;;;5.72;3.88;;;17.70;79.40;;;16.50;100.00;96242.63;5008254;28;20037;-69
2023/07/14 04:22:20;;;;;;;4.18;2.97;;;17.70;79.10;;;16.53;100.00;96241.41;5021259;28;20112;-68
2023/07/14 04:24:46;;;;;;;4.82;3.00;;;17.70;79.10;;;16.54;100.00;96243.03;4958735;22;20680;-71
2023/07/14 04:27:12;;;;;;;9.43;3.10;;;17.80;78.90;;;16.58;100.00;96256.66;4875415;28;20450;-71
2023/07/14 04:29:40;;;;;;;6.10;3.00;;;17.80;78.70;;;16.60;100.00;96251.94;4869212;28;20592;-71
2023/07/14 04:32:06;;;;;;;4.00;2.75;;;17.80;78.60;;;16.61;100.00;96249.06;4878469;28;20347;-72
2023/07/14 04:34:33;;;;;;;4.28;2.70;;;17.80;78.60;;;16.64;100.00;96247.81;4876995;28;20329;-72
2023/07/14 04:37:00;;;;;;;5.47;2.55;;;17.80;78.60;;;16.64;100.00;96253.13;4853490;28;20373;-73
2023/07/14 04:39:26;;;;;;;4.07;2.72;;;17.80;78.60;;;16.63;100.00;96252.31;4879844;28;20472;-73
2023/07/14 04:41:54;;;;;;;4.95;2.90;;;17.80;78.70;;;16.64;100.00;96247.81;4889501;28;20333;-72
2023/07/14 04:44:20;;;;;;;3.85;2.60;;;17.80;78.70;;;16.65;100.00;96238.78;4899348;28;20552;-72
2023/07/14 04:46:46;;;;;;;4.43;2.78;;;17.80;78.70;;;16.65;100.00;96233.50;4856262;28;20323;-71
2023/07/14 04:49:13;;;;;;;5.88;2.67;;;17.80;78.70;;;16.69;100.00;96237.34;4872869;28;20376;-72
2023/07/14 04:51:39;;;;;;;4.10;2.88;;;17.90;78.30;;;16.69;100.00;96234.69;4860479;28;20435;-71
2023/07/14 04:54:05;;;;;;;5.35;3.03;;;17.80;78.60;;;16.68;100.00;96239.19;4873008;28;20507;-68
2023/07/14 04:56:34;;;;;;;3.58;2.50;;;17.80;78.50;;;16.69;100.00;96235.50;4872027;28;20325;-68
2023/07/14 04:59:00;;;;;;;7.05;2.70;;;17.90;78.50;;;16.73;100.00;96241.97;4871529;28;20525;-74
2023/07/14 05:01:28;;;;;;;4.70;2.75;;;18.00;78.30;;;16.77;100.00;96232.56;4892400;28;20693;-73
2023/07/14 05:03:54;;;;;;;3.92;2.58;;;18.10;78.20;;;16.79;100.00;96233.13;4889922;28;20489;-73
2023/07/14 05:06:20;;;;;;;5.82;2.63;;;18.10;78.20;;;16.86;100.00;96229.56;4891088;28;20294;-73
2023/07/14 05:08:46;;;;;;;3.15;2.45;;;18.20;77.90;;;16.91;100.00;96222.53;4869791;28;20633;-74
2023/07/14 05:11:13;;;;;;;5.55;2.67;;;18.20;77.80;;;16.94;100.00;96227.41;4872260;28;20360;-69
2023/07/14 05:13:39;;;;;;;6.18;4.30;;;18.30;77.70;;;16.99;100.00;96224.91;4855497;28;20368;-66
2023/07/14 05:16:05;;;;;;;6.65;4.30;;;18.40;77.70;;;17.03;100.00;96226.06;4861192;28;20492;-63
2023/07/14 05:18:31;;;;;;;5.15;4.28;;;18.40;77.80;;;17.09;100.00;96227.00;4879285;28;20368;-66
2023/07/14 05:21:04;;;;;;;5.32;3.05;;;18.50;77.60;;;17.14;100.00;96225.28;4883638;28;20189;-69
2023/07/14 05:23:31;;;;;;;5.47;2.80;;;18.50;77.20;;;17.20;100.00;96225.41;4855707;28;20755;-69
2023/07/14 05:25:57;;;;;;;3.72;2.70;;;18.60;77.20;;;17.22;100.00;96223.34;4859806;28;20474;-70
2023/07/14 05:28:24;;;;;;;3.67;2.80;;;18.60;76.70;;;17.26;100.00;96219.19;4873337;28;20328;-66
2023/07/14 05:30:52;;;;;;;5.25;2.85;;;18.60;76.70;;;17.32;100.00;96223.59;4860237;28;20423;-68
2023/07/14 05:33:19;;;;;;;5.28;2.55;;;18.60;76.70;;;17.35;100.00;96209.84;4877740;28;20367;-68
2023/07/14 05:35:46;;;;;;;3.90;2.47;;;18.60;76.90;;;17.38;100.00;96212.03;4862833;28;20451;-69
2023/07/14 05:38:13;;;;;;;4.10;2.88;;;18.80;76.70;;;17.46;100.00;96214.38;4878671;28;20223;-67
2023/07/14 05:40:39;;;;;;;4.13;3.15;;;18.90;76.50;;;17.51;100.00;96201.19;4877135;28;20557;-65
2023/07/14 05:43:05;;;;;;;5.22;2.95;;;19.00;76.20;;;17.61;100.00;96200.63;4873187;28;20350;-69
2023/07/14 05:45:31;;;;;;;3.47;2.70;;;19.10;76.20;;;17.72;100.00;96198.00;4846881;28;20352;-70
2023/07/14 05:47:57;;;;;;;6.22;2.83;;;19.30;75.70;;;17.83;100.00;96196.38;4882521;28;20529;-68
2023/07/14 05:50:23;;;;;;;4.63;2.75;;;19.40;75.60;;;17.94;100.00;96200.09;4867190;28;20517;-67
2023/07/14 05:52:49;;;;;;;3.25;2.67;;;19.50;74.70;;;18.04;100.00;96193.13;4879161;28;20367;-66
2023/07/14 05:55:15;;;;;;;5.82;2.50;;;19.60;74.30;;;18.17;100.00;96196.59;4869358;28;20279;-65
2023/07/14 05:57:43;;;;;;;3.85;2.17;;;19.80;73.90;;;18.26;100.00;96190.66;4879927;28;20695;-65
2023/07/14 06:00:18;;;;;;;4.45;2.42;;;19.90;72.30;;;18.38;100.00;96195.16;4867811;28;20362;-68
2023/07/14 06:02:46;;;;;;;3.50;2.55;;;20.10;72.70;;;18.52;100.00;96207.16;4869999;28;20492;-65
2023/07/14 06:05:13;;;;;;;3.88;2.30;;;20.20;72.30;;;18.67;100.00;96210.16;4878241;28;20663;-67
2023/07/14 06:07:40;;;;;;;5.97;2.55;;;20.40;71.60;;;18.82;100.00;96207.78;4860364;28;20509;-67
2023/07/14 06:10:07;;;;;;;4.63;2.40;;;20.60;70.50;;;18.97;100.00;96208.06;4872797;28;20454;-66
2023/07/14 06:12:33;;;;;;;4.15;2.90;;;20.80;69.30;;;19.14;100.00;96202.75;4881124;28;20382;-69
2023/07/14 06:14:59;;;;;;;3.50;2.60;;;21.00;68.90;;;19.30;100.00;96208.38;4873492;28;20367;-64
2023/07/14 06:17:25;;;;;;;4.90;2.88;;;21.10;68.20;;;19.45;100.00;96201.41;4863759;28;20536;-65
2023/07/14 06:19:52;;;;;;;5.95;2.85;;;21.30;67.70;;;19.60;100.00;96197.41;4870007;28;20604;-65
2023/07/14 06:22:20;;;;;;;4.45;3.03;;;21.60;67.50;;;19.75;100.00;96195.78;4879713;28;20500;-65
2023/07/14 06:24:48;;;;;;;6.78;3.10;;;21.70;67.30;;;19.97;100.00;96192.38;4872372;28;20357;-67
2023/07/14 06:27:14;;;;;;;4.85;2.60;;;22.10;67.10;;;20.15;100.00;96194.75;4861057;28;20478;-66
2023/07/14 06:29:45;;;;;;;5.32;3.10;;;22.30;66.60;;;20.35;99.92;96189.66;4887654;28;20792;-68
2023/07/14 06:32:12;;;;;;;6.35;3.38;;;22.60;66.20;;;20.59;98.90;96190.25;4891404;28;20319;-66
2023/07/14 06:34:38;;;;;;;4.30;2.90;;;22.80;65.30;;;20.79;97.91;96195.81;4891851;28;20370;-68
2023/07/14 06:37:05;;;;;;;5.63;2.88;;;22.90;65.30;;;20.95;95.47;96190.63;4849875;28;20503;-69
2023/07/14 06:39:34;;;;;;;6.53;3.35;;;23.10;63.00;;;21.10;94.05;96185.44;4885782;28;20206;-68
2023/07/14 06:42:00;;;;;;;6.05;3.00;;;23.20;62.80;;;21.24;92.83;96185.88;4880444;28;20369;-68
2023/07/14 06:44:26;;;;;;;4.53;3.03;;;23.50;62.30;;;21.42;91.98;96171.31;4962172;28;20194;-62
2023/07/14 06:46:52;;;;;;;6.72;3.22;;;23.70;61.10;;;21.59;90.86;96172.78;4891024;28;20429;-65
2023/07/14 06:49:18;;;;;;;7.18;3.22;;;24.10;60.40;;;21.79;89.37;96172.13;4884529;28;20034;-67
2023/07/14 06:51:44;;;;;;;4.85;2.80;;;24.20;59.30;;;21.96;87.85;96162.06;4877785;28;20314;-66
2023/07/14 06:54:10;;;;;;;4.35;2.50;;;24.40;59.20;;;22.15;87.69;96161.63;4860397;28;20292;-65
2023/07/14 06:56:36;;;;;;;6.60;4.88;;;24.60;58.70;;;22.36;86.50;96165.22;4875835;28;20271;-67
2023/07/14 06:59:02;;;;;;;6.85;4.68;;;24.90;58.30;;;22.53;84.76;96161.28;4897760;28;20041;-67
2023/07/14 07:01:28;;;;;;;7.75;4.45;;;25.10;56.90;;;22.69;82.98;96158.66;4882281;28;20512;-70
2023/07/14 07:04:00;;;;;;;5.80;4.20;;;25.20;56.10;;;22.79;81.71;96170.19;4875540;28;20367;-69
2023/07/14 07:06:26;;;;;;;4.20;2.63;;;25.30;55.80;;;22.94;80.38;96156.06;4884286;28;20537;-69
2023/07/14 07:08:52;;;;;;;3.97;2.58;;;25.50;55.50;;;23.08;80.14;96151.75;4900422;28;20743;-67
2023/07/14 07:11:18;;;;;;;4.82;3.30;;;25.70;55.20;;;23.21;80.22;96159.31;4881580;28;20426;-66
2023/07/14 07:13:44;;;;;;;5.28;3.10;;;25.90;55.00;;;23.37;77.80;96159.31;4875418;28;20386;-66
2023/07/14 07:16:10;;;;;;;10.90;6.65;;;26.20;53.60;;;23.55;76.72;96152.63;4870524;28;20580;-68
2023/07/14 07:18:36;;;;;;;3.53;2.50;;;26.40;52.60;;;23.71;76.96;96148.84;4889139;28;20584;-67
2023/07/14 07:21:03;;;;;;;4.60;2.53;;;26.60;52.70;;;23.91;76.87;96148.00;4881016;28;20344;-65
2023/07/14 07:23:29;;;;;;;4.05;2.35;;;27.00;53.30;;;24.14;75.46;96150.09;4885862;28;20811;-68
2023/07/14 07:25:55;;;;;;;5.85;2.33;;;27.30;51.20;;;24.35;73.53;96148.97;4878040;28;20312;-68
2023/07/14 07:28:21;;;;;;;6.00;2.30;;;27.50;49.80;;;24.54;71.94;96145.69;4877778;28;20189;-66
2023/07/14 07:30:48;;;;;;;3.38;2.00;;;27.60;48.70;;;24.71;71.10;96124.63;4877358;28;20407;-70
2023/07/14 07:33:14;;;;;;;3.03;1.98;;;27.70;48.20;;;24.85;69.71;96130.97;4886914;28;20266;-67
2023/07/14 07:35:41;;;;;;;3.80;2.47;;;27.80;48.10;;;25.02;68.67;96119.88;4883530;28;20703;-66
2023/07/14 07:38:10;;;;;;;2.72;2.00;;;28.10;47.50;;;25.23;67.68;96117.84;4874280;28;20385;-68
2023/07/14 07:40:44;;;;;;;4.60;1.88;;;28.40;46.70;;;25.46;65.51;96103.63;4856698;28;20530;-67
2023/07/14 07:43:10;;;;;;;3.17;1.90;;;28.60;47.10;;;25.69;66.97;96112.06;4856813;28;20549;-66
2023/07/14 07:45:37;;;;;;;4.75;2.30;;;29.00;45.50;;;25.89;64.64;96101.09;4904005;28;20392;-68
2023/07/14 07:48:05;;;;;;;5.72;2.08;;;29.00;44.60;;;26.09;64.65;96100.06;4858493;28;20327;-66
2023/07/14 07:50:31;;;;;;;2.97;1.85;;;29.30;44.50;;;26.35;63.93;96103.28;4882267;28;20477;-68
2023/07/14 07:52:57;;;;;;;9.70;2.05;;;29.60;45.10;;;26.56;63.02;96101.94;4857468;28;20803;-67
2023/07/14 07:55:26;;;;;;;6.38;1.95;;;29.70;44.30;;;26.77;62.66;96100.56;4870276;28;20369;-68
2023/07/14 07:57:52;;;;;;;4.00;2.13;;;30.10;43.70;;;27.06;63.08;96096.91;4869367;28;20330;-70
2023/07/14 08:00:19;;;;;;;2.50;1.55;;;30.30;43.90;;;27.34;60.98;96093.22;4898625;28;20707;-66
2023/07/14 08:02:45;;;;;;;3.80;1.90;;;30.80;42.30;;;27.56;59.28;96073.66;4878442;28;20336;-66
2023/07/14 08:05:12;;;;;;;3.83;1.90;;;30.60;40.10;;;27.68;57.17;96070.50;4899214;28;20308;-70
2023/07/14 08:07:41;;;;;;;4.10;2.10;;;31.00;40.00;;;27.71;56.92;96064.50;4866666;28;20330;-66
2023/07/14 08:10:07;;;;;;;4.18;1.58;;;30.70;40.70;;;27.79;56.74;96065.69;4888253;28;20825;-70
2023/07/14 08:12:34;;;;;;;4.10;2.08;;;31.00;41.50;;;27.78;56.59;96062.19;4874891;28;20319;-66
2023/07/14 08:15:00;;;;;;;3.47;2.33;;;30.90;41.90;;;27.74;56.15;96051.19;4873615;28;20356;-69
2023/07/14 08:17:32;;;;;;;4.05;2.10;;;30.90;41.10;;;27.76;54.75;96037.38;4863638;28;20428;-65
2023/07/14 08:19:59;;;;;;;2.75;1.80;;;31.10;41.30;;;27.81;56.39;96048.09;4877127;28;20381;-67
2023/07/14 08:22:26;;;;;;;3.05;1.73;;;31.30;40.80;;;27.83;56.50;96051.28;4865526;28;20423;-68
2023/07/14 08:24:56;;;;;;;4.60;1.55;;;31.50;40.90;;;27.96;54.88;96034.28;4869071;28;20533;-66
2023/07/14 08:27:22;;;;;;;2.95;1.60;;;31.80;39.90;;;28.11;55.38;96052.09;4875729;28;20831;-69
2023/07/14 08:29:48;;;;;;;3.67;1.42;;;32.10;39.70;;;28.27;54.37;96036.38;4897418;28;20351;-68
2023/07/14 08:32:15;;;;;;;5.03;1.40;;;32.40;37.00;;;28.38;53.56;96040.47;4878304;28;20354;-65
2023/07/14 08:34:41;;;;;;;3.83;1.25;;;32.50;37.60;;;28.54;53.11;96039.03;4879713;28;20303;-66
2023/07/14 08:37:07;;;;;;;2.92;1.25;;;32.90;37.20;;;28.64;52.11;96038.78;4873844;28;20490;-67
2023/07/14 08:39:33;;;;;;;4.13;1.20;;;33.00;36.30;;;28.82;52.17;96033.53;4870357;28;20359;-66
2023/07/14 08:42:07;;;;;;;2.85;1.48;;;33.20;36.70;;;28.98;49.39;96005.03;4884544;28;20505;-66
2023/07/14 08:45:16;;;;;;;2.25;1.30;;;33.20;36.10;;;29.22;47.46;95988.44;4869279;28;20732;-68
2023/07/14 08:47:59;;;;;;;4.88;1.33;;;33.50;35.60;;;29.32;46.43;95981.94;4927135;28;20046;-69
2023/07/14 08:50:27;;;;;;;4.10;1.25;;;33.10;35.30;;;29.35;50.41;96013.81;4917722;28;20029;-66
2023/07/14 08:52:54;;;;;;;5.97;1.63;;;33.10;37.00;;;29.52;49.74;96013.94;4916671;28;20049;-66
2023/07/14 08:55:26;;;;;;;5.60;1.40;;;33.00;36.10;;;29.39;46.31;95982.28;4914083;28;20065;-63
2023/07/14 08:57:57;;;;;;;13.07;2.38;;;32.10;36.50;;;29.15;46.91;95993.47;4906721;28;20033;-67
2023/07/14 09:00:36;;;;;;;2.67;1.42;;;31.50;38.00;;;29.02;47.03;96000.59;4915458;28;20046;-67
2023/07/14 09:03:37;;;;;;;3.72;1.70;;;31.80;37.30;;;29.10;48.53;96005.25;4932280;28;20036;-67
2023/07/14 09:06:30;;;;;;;2.70;1.40;;;32.20;38.40;;;29.36;48.41;95999.16;4963731;28;20037;-68
2023/07/14 09:08:56;;;;;;;3.20;1.50;;;32.70;38.30;;;29.57;49.25;96011.91;4927792;28;20068;-69
2023/07/14 09:11:30;;;;;;;4.07;1.65;;;33.10;37.60;;;29.84;47.64;95994.59;4947926;28;20033;-66
2023/07/14 09:14:17;;;;;;;5.82;1.40;;;33.30;37.30;;;30.03;46.44;95978.09;4942839;28;20037;-70
2023/07/14 09:17:10;;;;;;;2.38;1.45;;;33.60;36.10;;;30.23;44.42;95957.72;4924569;28;20037;-64
2023/07/14 09:20:07;;;;;;;2.83;1.10;;;33.70;35.10;;;30.41;44.79;95959.31;4940538;28;20045;-65
2023/07/14 09:22:56;;;;;;;9.50;1.40;;;33.80;35.10;;;30.64;44.36;95956.47;4936100;28;20033;-66
2023/07/14 09:25:38;;;;;;;3.67;1.60;;;34.10;35.40;;;30.84;43.79;95953.09;4951104;28;20051;-66
2023/07/14 09:28:14;;;;;;;2.78;1.63;;;34.30;34.70;;;31.01;43.83;95958.50;4934625;28;20297;-66
2023/07/14 09:30:40;;;;;;;2.40;1.27;;;34.60;34.30;;;31.22;45.73;95974.13;4949569;28;20034;-68
2023/07/14 09:33:09;;;;;;;2.95;1.52;;;34.70;34.50;;;31.42;43.95;95959.84;4921168;28;20344;-65
2023/07/14 09:35:35;;;;;;;2.35;1.20;;;34.80;34.80;;;31.61;45.34;95965.69;4910069;28;20033;-65
2023/07/14 09:38:15;;;;;;;2.60;1.20;;;35.10;34.30;;;31.87;42.01;95945.72;4944972;28;20254;-66
2023/07/14 09:40:42;;;;;;;4.53;1.30;;;35.40;33.70;;;32.03;43.68;95963.09;4954651;28;20036;-65
2023/07/14 09:43:10;;;;;;;2.55;1.60;;;35.60;33.10;;;32.19;42.42;95957.88;4935435;28;20266;-66
2023/07/14 09:45:38;;;;;;;2.53;1.20;;;35.60;33.50;;;32.34;43.13;95949.13;4934720;28;20152;-66
2023/07/14 09:48:19;;;;;;;2.63;1.27;;;35.80;33.50;;;32.53;39.64;95924.16;4976528;28;20060;-65
2023/07/14 09:51:09;;;;;;;5.82;1.67;;;36.00;32.30;;;32.68;38.19;95900.97;4909522;28;20565;-64
2023/07/14 09:53:37;;;;;;;3.38;1.60;;;36.10;31.20;;;32.71;39.99;95914.69;4954335;28;20582;-65
2023/07/14 09:56:36;;;;;;;3.20;1.70;;;36.00;30.10;;;32.68;38.06;95901.75;4893288;28;20347;-66
2023/07/14 09:59:05;;;;;;;4.32;1.45;;;35.80;31.90;;;32.73;38.61;95904.25;4894939;28;20359;-68
2023/07/14 10:01:32;;;;;;;3.38;1.40;;;35.90;29.80;;;32.71;38.82;95917.44;4889724;28;20586;-67
2023/07/14 10:04:19;;;;;;;5.05;1.90;;;36.10;30.30;;;32.66;36.33;95874.06;4876338;28;20793;-67
2023/07/14 10:06:50;;;;;;;6.40;5.72;;;36.20;30.00;;;32.87;37.63;95891.19;4895326;28;20811;-66
2023/07/14 10:09:20;;;;;;;4.95;2.00;;;36.60;30.00;;;33.13;38.56;95899.06;4857037;28;20369;-69
2023/07/14 10:11:50;;;;;;;2.88;1.70;;;37.20;29.50;;;33.37;37.01;95879.22;4880987;28;20763;-67
2023/07/14 10:14:40;;;;;;;1.92;1.15;;;37.50;27.90;;;33.51;33.52;95839.94;4878258;28;20527;-68
2023/07/14 10:17:24;;;;;;;3.28;1.35;;;37.30;26.80;;;33.66;33.42;95839.22;4887308;28;20384;-64
2023/07/14 10:19:56;;;;;;;2.55;1.25;;;37.60;27.00;;;33.99;35.69;95860.91;4858163;28;20296;-69
2023/07/14 10:22:29;;;;;;;2.08;1.20;;;38.00;27.50;;;34.25;34.24;95838.63;4862271;28;20312;-69
2023/07/14 10:24:59;;;;;;;2.70;1.10;;;38.10;27.80;;;34.43;33.87;95826.31;4884210;28;20672;-68
2023/07/14 10:27:37;;;;;;;5.80;4.32;;;38.50;27.00;;;34.48;33.25;95828.78;4861979;28;20409;-66